Time;durP1;ratioP1;P1;durP2;ratioP2;P2;SDS_P1;SDS_P2;PMS_P1;PMS_P2;Temp;Humidity;BMP_temperature;BMP_pressure;BME280_temperature;BME280_humidity;BME280_pressure;Samples;Min_cycle;Max_cycle;Signal;HPM_P1;HPM_P2
2021/12/25 00:01:51;;;;;;;1.83;1.37;;;0.00;99.90;;;;;;5074602;28;20219;-64
2021/12/25 00:04:18;;;;;;;2.63;1.50;;;-0.10;99.90;;;;;;5071953;28;20206;-62
2021/12/25 00:06:45;;;;;;;2.10;1.30;;;-0.20;99.90;;;;;;5071153;28;20228;-62
2021/12/25 00:09:12;;;;;;;1.33;1.20;;;-0.20;99.90;;;;;;5071257;28;20205;-62
2021/12/25 00:11:40;;;;;;;2.17;1.40;;;-0.20;99.90;;;;;;5071410;28;20229;-62
2021/12/25 00:14:11;;;;;;;1.53;1.20;;;-0.30;99.90;;;;;;5071012;28;20893;-63
2021/12/25 00:16:38;;;;;;;2.57;1.23;;;-0.30;99.90;;;;;;5085977;28;20673;-63
2021/12/25 00:19:06;;;;;;;1.40;1.30;;;-0.30;99.90;;;;;;5073237;28;20213;-63
2021/12/25 00:21:33;;;;;;;2.40;1.10;;;-0.30;99.90;;;;;;5071820;28;20240;-63
2021/12/25 00:24:00;;;;;;;1.67;0.97;;;-0.20;99.90;;;;;;5071276;28;20253;-62
2021/12/25 00:26:41;;;;;;;2.23;1.17;;;-0.40;99.90;;;;;;5071434;28;20264;-62
2021/12/25 00:29:33;;;;;;;1.83;1.30;;;-0.40;99.90;;;;;;5072102;28;20206;-63
2021/12/25 00:32:14;;;;;;;1.43;1.13;;;-0.50;99.90;;;;;;5071650;28;20208;-62
2021/12/25 00:34:41;;;;;;;1.80;1.50;;;-0.50;99.90;;;;;;5070865;28;20706;-62
2021/12/25 00:37:09;;;;;;;1.60;1.40;;;-0.50;99.90;;;;;;5070803;28;20201;-63
2021/12/25 00:39:36;;;;;;;2.40;1.90;;;-0.60;99.90;;;;;;5071760;28;20209;-64
2021/12/25 00:42:05;;;;;;;2.27;1.40;;;-0.60;99.90;;;;;;5072495;28;20255;-63
2021/12/25 00:44:33;;;;;;;1.60;1.40;;;-0.60;99.90;;;;;;5071141;28;20205;-63
2021/12/25 00:47:01;;;;;;;2.47;1.40;;;-0.60;99.90;;;;;;5073359;28;20296;-63
2021/12/25 00:49:28;;;;;;;2.47;1.53;;;-0.60;99.90;;;;;;5057313;28;20240;-62
2021/12/25 00:51:56;;;;;;;2.10;1.50;;;-0.70;99.90;;;;;;5071136;28;20201;-63
2021/12/25 00:54:23;;;;;;;2.57;1.60;;;-0.60;99.90;;;;;;5070488;28;20205;-60
2021/12/25 00:56:50;;;;;;;2.63;1.40;;;-0.70;99.90;;;;;;5070563;28;20223;-62
2021/12/25 00:59:17;;;;;;;1.53;1.37;;;-0.70;99.90;;;;;;5070757;28;20224;-62
2021/12/25 01:01:45;;;;;;;1.70;1.60;;;-0.70;99.90;;;;;;5078257;28;20197;-64
2021/12/25 01:04:13;;;;;;;3.83;1.53;;;-0.70;99.90;;;;;;5081922;28;20229;-62
2021/12/25 01:06:40;;;;;;;2.57;1.60;;;-0.70;99.90;;;;;;5070622;28;20213;-63
2021/12/25 01:09:07;;;;;;;2.50;1.70;;;-0.80;99.90;;;;;;5070667;28;20642;-63
2021/12/25 01:11:35;;;;;;;4.30;1.50;;;-0.80;99.90;;;;;;5071632;28;20551;-63
2021/12/25 01:14:09;;;;;;;2.50;1.60;;;-0.90;99.90;;;;;;5071436;28;20656;-62
2021/12/25 01:22:35;;;;;;;3.37;1.47;;;-1.00;99.90;;;;;;5030803;28;20739;-63
2021/12/25 01:30:47;;;;;;;2.33;1.07;;;-1.10;99.90;;;;;;5068933;28;20566;-63
2021/12/25 01:33:32;;;;;;;2.77;1.10;;;-1.20;99.90;;;;;;5076039;28;20201;-64
2021/12/25 01:38:57;;;;;;;1.23;0.73;;;-1.40;99.90;;;;;;5061232;28;20232;-63
2021/12/25 01:41:53;;;;;;;1.97;1.00;;;-1.30;99.90;;;;;;5062259;28;20242;-63
2021/12/25 01:49:45;;;;;;;1.40;1.00;;;-1.60;99.90;;;;;;5070471;28;20254;-62
2021/12/25 01:52:14;;;;;;;4.03;1.30;;;-1.60;99.90;;;;;;5073468;28;20288;-62
2021/12/25 01:54:40;;;;;;;2.80;0.90;;;-1.70;99.90;;;;;;5073354;28;20308;-64
2021/12/25 01:57:09;;;;;;;3.27;1.00;;;-1.70;99.90;;;;;;5073382;28;20223;-63
2021/12/25 01:59:36;;;;;;;0.77;0.70;;;-1.80;99.90;;;;;;5073604;28;20689;-61
2021/12/25 02:02:03;;;;;;;1.60;0.87;;;-1.80;99.90;;;;;;5082709;28;20206;-64
2021/12/25 02:04:30;;;;;;;4.13;1.10;;;-1.80;99.90;;;;;;5073001;28;20225;-60
2021/12/25 02:06:57;;;;;;;2.37;0.80;;;-1.80;99.90;;;;;;5073620;28;20210;-63
2021/12/25 02:09:25;;;;;;;1.20;0.80;;;-1.90;99.90;;;;;;5072636;28;20224;-62
2021/12/25 02:11:53;;;;;;;4.13;1.63;;;-1.90;99.90;;;;;;5073362;28;20684;-63
2021/12/25 02:14:20;;;;;;;2.73;1.00;;;-1.90;99.90;;;;;;5073406;28;20205;-63
2021/12/25 02:16:54;;;;;;;1.27;0.80;;;-2.00;99.90;;;;;;5073819;28;20201;-64
2021/12/25 02:19:33;;;;;;;1.60;0.90;;;-2.00;99.90;;;;;;5072955;28;20232;-62
2021/12/25 02:22:03;;;;;;;1.30;0.80;;;-2.10;99.90;;;;;;5072960;28;20670;-63
2021/12/25 02:24:30;;;;;;;1.23;0.80;;;-2.10;99.90;;;;;;5075519;28;20247;-63
2021/12/25 02:26:58;;;;;;;2.13;1.03;;;-2.20;99.90;;;;;;5071656;28;20243;-61
2021/12/25 02:29:25;;;;;;;1.80;0.80;;;-2.20;99.90;;;;;;5071773;28;20642;-61
2021/12/25 02:31:51;;;;;;;2.27;1.33;;;-2.20;99.90;;;;;;5071757;28;20435;-62
2021/12/25 02:34:18;;;;;;;1.70;1.00;;;-2.30;99.90;;;;;;5071698;28;20413;-62
2021/12/25 02:36:45;;;;;;;2.03;1.13;;;-2.40;99.90;;;;;;5072355;28;20681;-63
2021/12/25 02:39:13;;;;;;;1.40;1.00;;;-2.40;99.90;;;;;;5072030;28;20209;-62
2021/12/25 02:41:40;;;;;;;1.30;0.93;;;-2.50;99.90;;;;;;5072892;28;20205;-64
2021/12/25 02:44:07;;;;;;;1.47;0.80;;;-2.50;99.90;;;;;;5072089;28;20235;-64
2021/12/25 02:46:35;;;;;;;1.73;1.03;;;-2.60;99.90;;;;;;5072616;28;20252;-64
2021/12/25 02:49:02;;;;;;;1.13;0.90;;;-2.60;99.90;;;;;;5072349;28;20344;-65
2021/12/25 02:51:29;;;;;;;1.90;0.97;;;-2.70;99.90;;;;;;5072150;28;20217;-63
2021/12/25 02:53:56;;;;;;;2.37;1.20;;;-2.80;99.90;;;;;;5072808;28;20216;-62
2021/12/25 02:56:24;;;;;;;1.47;0.97;;;-2.80;99.90;;;;;;5073014;28;20241;-63
2021/12/25 02:58:51;;;;;;;2.33;1.10;;;-2.90;99.90;;;;;;5073275;28;20209;-61
2021/12/25 03:01:20;;;;;;;1.50;1.10;;;-2.90;99.90;;;;;;5073373;28;20588;-62
2021/12/25 03:03:47;;;;;;;2.73;1.17;;;-2.90;99.90;;;;;;5081734;28;20217;-62
2021/12/25 03:06:15;;;;;;;2.87;0.90;;;-2.90;99.90;;;;;;5073035;28;20209;-62
2021/12/25 03:08:43;;;;;;;4.23;1.00;;;-3.00;99.90;;;;;;5072830;28;20216;-64
2021/12/25 03:11:13;;;;;;;4.17;1.20;;;-3.00;99.90;;;;;;5072362;28;20216;-64
2021/12/25 03:13:56;;;;;;;1.50;0.90;;;-3.00;99.90;;;;;;5072355;28;20201;-63
2021/12/25 03:16:23;;;;;;;1.10;0.90;;;-3.10;99.90;;;;;;5072949;28;20227;-64
2021/12/25 03:18:52;;;;;;;3.10;0.90;;;-3.00;99.90;;;;;;5084826;28;20209;-62
2021/12/25 03:21:20;;;;;;;1.93;1.00;;;-3.10;99.90;;;;;;5072473;28;20216;-63
2021/12/25 03:23:48;;;;;;;1.23;0.80;;;-3.10;99.90;;;;;;5072213;28;20237;-63
2021/12/25 03:26:15;;;;;;;1.10;0.80;;;-3.20;99.90;;;;;;5071437;28;20252;-63
2021/12/25 03:28:45;;;;;;;1.17;1.00;;;-3.20;99.90;;;;;;5072434;28;20209;-63
2021/12/25 03:31:17;;;;;;;2.60;1.20;;;-3.10;99.90;;;;;;5072470;28;20205;-64
2021/12/25 03:33:46;;;;;;;1.53;0.77;;;-3.20;99.90;;;;;;5073368;28;20654;-63
2021/12/25 03:36:14;;;;;;;2.33;1.17;;;-3.20;99.90;;;;;;5073103;28;20212;-63
2021/12/25 03:38:41;;;;;;;1.50;1.00;;;-3.20;99.90;;;;;;5072792;28;20209;-63
2021/12/25 03:41:08;;;;;;;4.17;1.50;;;-3.20;99.90;;;;;;5072821;28;20212;-64
2021/12/25 03:43:37;;;;;;;2.83;1.20;;;-3.30;99.90;;;;;;5071489;28;20224;-63
2021/12/25 03:46:06;;;;;;;3.60;0.83;;;-3.30;99.90;;;;;;5071552;28;20625;-64
2021/12/25 03:49:03;;;;;;;1.23;0.97;;;-3.30;99.90;;;;;;5072190;28;20274;-63
2021/12/25 03:59:52;;;;;;;1.37;0.87;;;-3.50;99.90;;;;;;5071891;28;20270;-62
2021/12/25 04:02:26;;;;;;;1.73;0.90;;;-3.60;99.90;;;;;;5072047;28;20208;-63
2021/12/25 04:04:53;;;;;;;4.33;1.30;;;-3.70;99.90;;;;;;5058835;28;20233;-62
2021/12/25 04:07:43;;;;;;;5.67;1.30;;;-3.70;99.90;;;;;;5071839;28;20201;-62
2021/12/25 04:10:10;;;;;;;1.40;1.07;;;-3.80;99.90;;;;;;5071382;28;20248;-63
2021/12/25 04:12:37;;;;;;;3.30;1.13;;;-3.80;99.90;;;;;;5071942;28;20732;-64
2021/12/25 04:15:05;;;;;;;2.53;1.30;;;-3.90;99.90;;;;;;5070558;28;20213;-62
2021/12/25 04:17:33;;;;;;;3.57;1.40;;;-3.90;99.90;;;;;;5071129;28;20206;-63
2021/12/25 04:20:02;;;;;;;1.67;0.87;;;-4.00;99.90;;;;;;5070004;28;20205;-63
2021/12/25 04:22:36;;;;;;;2.67;1.30;;;-4.00;99.90;;;;;;5071489;28;20212;-63
2021/12/25 04:25:03;;;;;;;2.37;1.23;;;-4.00;99.90;;;;;;5070954;28;20221;-63
2021/12/25 04:27:32;;;;;;;4.40;1.50;;;-4.10;99.90;;;;;;5075631;28;20247;-63
2021/12/25 04:30:04;;;;;;;2.03;1.00;;;-4.10;99.90;;;;;;5071599;28;20212;-62
2021/12/25 04:32:59;;;;;;;3.47;1.23;;;-4.20;99.90;;;;;;5071408;28;20205;-64
2021/12/25 05:03:12;;;;;;;2.70;1.40;;;-4.50;99.90;;;;;;5065592;28;20604;-62
2021/12/25 05:05:40;;;;;;;1.97;1.37;;;-4.50;99.90;;;;;;5072005;28;20247;-62
2021/12/25 05:08:08;;;;;;;2.07;1.47;;;-4.60;99.90;;;;;;5074725;28;20209;-64
2021/12/25 05:10:35;;;;;;;2.00;1.70;;;-4.60;99.90;;;;;;5075400;28;20209;-62
2021/12/25 05:13:02;;;;;;;2.77;1.93;;;-4.60;99.90;;;;;;5072844;28;20236;-62
2021/12/25 05:15:29;;;;;;;2.90;1.80;;;-4.60;99.90;;;;;;5075350;28;20213;-62
2021/12/25 05:17:56;;;;;;;3.90;2.10;;;-4.70;99.90;;;;;;5075312;28;20223;-62
2021/12/25 05:20:24;;;;;;;4.50;2.40;;;-4.70;99.90;;;;;;5076053;28;20216;-62
2021/12/25 05:22:51;;;;;;;2.97;2.20;;;-4.70;99.90;;;;;;5075605;28;20209;-63
2021/12/25 05:25:19;;;;;;;4.47;2.50;;;-4.70;99.90;;;;;;5074280;28;20227;-63
2021/12/25 05:27:46;;;;;;;3.30;2.40;;;-4.70;99.90;;;;;;5073546;28;20233;-63
2021/12/25 05:30:14;;;;;;;4.10;2.50;;;-4.70;99.90;;;;;;5073827;28;20236;-62
2021/12/25 05:32:40;;;;;;;3.23;2.20;;;-4.80;99.90;;;;;;5075332;28;20207;-63
2021/12/25 05:35:08;;;;;;;5.00;2.10;;;-4.80;99.90;;;;;;5075068;28;20566;-64
2021/12/25 05:37:35;;;;;;;3.80;2.30;;;-4.80;99.90;;;;;;5075978;28;20209;-63
2021/12/25 05:40:02;;;;;;;5.33;2.40;;;-4.80;99.90;;;;;;5077052;28;20700;-63
2021/12/25 05:42:30;;;;;;;3.27;2.13;;;-4.80;99.90;;;;;;5088088;28;20209;-62
2021/12/25 05:44:57;;;;;;;3.43;2.07;;;-4.90;99.90;;;;;;5083035;28;20586;-64
2021/12/25 05:47:24;;;;;;;3.97;1.83;;;-4.90;99.90;;;;;;5081397;28;20215;-62
2021/12/25 05:49:51;;;;;;;6.03;1.87;;;-4.80;99.90;;;;;;5077536;28;20206;-62
2021/12/25 05:52:18;;;;;;;3.90;1.37;;;-4.90;99.90;;;;;;5077100;28;20215;-63
2021/12/25 05:54:45;;;;;;;4.87;1.80;;;-5.00;99.90;;;;;;5076192;28;20545;-61
2021/12/25 05:57:11;;;;;;;3.57;1.30;;;-5.00;99.90;;;;;;5075153;28;20229;-62
2021/12/25 05:59:40;;;;;;;1.73;1.50;;;-5.10;99.90;;;;;;5077123;28;20219;-63
2021/12/25 06:02:07;;;;;;;4.73;1.80;;;-5.20;99.90;;;;;;5074919;28;20198;-62
2021/12/25 06:04:34;;;;;;;4.13;2.17;;;-5.20;99.90;;;;;;5074824;28;20288;-64
2021/12/25 06:07:01;;;;;;;2.77;1.77;;;-5.30;99.90;;;;;;5073987;28;20832;-63
2021/12/25 06:09:28;;;;;;;4.20;1.63;;;-5.30;99.90;;;;;;5074916;28;20288;-64
2021/12/25 06:11:55;;;;;;;2.47;1.80;;;-5.30;99.90;;;;;;5074074;28;20213;-63
2021/12/25 06:14:22;;;;;;;4.50;2.10;;;-5.40;99.90;;;;;;5073753;28;20240;-64
2021/12/25 06:16:51;;;;;;;3.70;1.77;;;-5.50;99.90;;;;;;5074821;28;20664;-62
2021/12/25 06:19:18;;;;;;;3.77;2.00;;;-5.50;99.90;;;;;;5073615;28;20201;-64
2021/12/25 06:21:46;;;;;;;2.63;1.93;;;-5.60;99.90;;;;;;5073616;28;20201;-61
2021/12/25 06:24:14;;;;;;;2.00;1.60;;;-5.60;99.90;;;;;;5066702;28;20208;-62
2021/12/25 06:26:41;;;;;;;4.33;1.73;;;-5.60;99.90;;;;;;5073744;28;20244;-62
2021/12/25 06:29:08;;;;;;;4.17;2.00;;;-5.70;99.90;;;;;;5072898;28;20198;-63
2021/12/25 06:31:35;;;;;;;2.97;1.90;;;-5.70;99.90;;;;;;5070761;28;20671;-63
2021/12/25 06:34:05;;;;;;;6.47;2.03;;;-5.70;99.90;;;;;;5074069;28;20247;-63
2021/12/25 06:36:32;;;;;;;4.13;2.13;;;-5.70;99.90;;;;;;5073789;28;20205;-63
2021/12/25 06:38:59;;;;;;;4.93;2.00;;;-5.70;99.90;;;;;;5074415;28;20201;-63
2021/12/25 06:41:28;;;;;;;4.57;1.90;;;-5.80;99.90;;;;;;5073754;28;20734;-63
2021/12/25 06:43:55;;;;;;;5.67;2.10;;;-5.80;99.90;;;;;;5073475;28;20209;-63
2021/12/25 06:46:22;;;;;;;3.97;1.70;;;-5.90;99.90;;;;;;5073369;28;20216;-63
2021/12/25 06:48:48;;;;;;;2.87;1.70;;;-5.90;99.90;;;;;;5071239;28;20536;-63
2021/12/25 06:51:17;;;;;;;4.13;2.03;;;-5.90;99.90;;;;;;5072772;28;20212;-64
2021/12/25 06:53:43;;;;;;;3.27;1.67;;;-5.90;99.90;;;;;;5074294;28;20245;-63
2021/12/25 06:56:10;;;;;;;3.60;1.90;;;-5.90;99.90;;;;;;5073513;28;20231;-63
2021/12/25 06:58:37;;;;;;;4.07;2.20;;;-5.90;99.90;;;;;;5073513;28;20207;-63
2021/12/25 07:01:04;;;;;;;4.30;2.10;;;-5.90;99.90;;;;;;5080096;28;20712;-62
2021/12/25 07:03:31;;;;;;;3.30;1.80;;;-5.90;99.90;;;;;;5080961;28;20201;-63
2021/12/25 07:05:59;;;;;;;3.23;1.70;;;-5.60;99.90;;;;;;5075870;28;20201;-62
2021/12/25 07:08:27;;;;;;;4.60;1.93;;;-5.80;99.90;;;;;;5074691;28;20209;-62
2021/12/25 07:10:54;;;;;;;4.60;2.30;;;-5.80;99.90;;;;;;5073519;28;20658;-63
2021/12/25 07:13:20;;;;;;;4.70;2.83;;;-5.80;99.90;;;;;;5073903;28;20210;-62
2021/12/25 07:15:48;;;;;;;5.97;2.40;;;-5.90;99.90;;;;;;5073338;28;20315;-62
2021/12/25 07:18:15;;;;;;;5.30;2.20;;;-5.90;99.90;;;;;;5072783;28;20214;-63
2021/12/25 07:20:42;;;;;;;4.70;2.20;;;-5.90;99.90;;;;;;5073163;28;20231;-63
2021/12/25 07:23:09;;;;;;;3.00;2.13;;;-5.90;99.90;;;;;;5073386;28;20205;-64
2021/12/25 07:25:37;;;;;;;6.97;2.93;;;-5.90;99.90;;;;;;5073052;28;20689;-60
2021/12/25 07:28:04;;;;;;;4.80;2.27;;;-5.90;99.90;;;;;;5071919;28;20229;-63
2021/12/25 07:30:31;;;;;;;4.33;2.37;;;-5.80;99.90;;;;;;5073076;28;20197;-63
2021/12/25 07:32:58;;;;;;;5.50;2.53;;;-5.70;99.90;;;;;;5085425;28;20273;-63
2021/12/25 07:35:27;;;;;;;3.93;2.17;;;-5.70;99.90;;;;;;5072228;28;20607;-63
2021/12/25 07:37:54;;;;;;;3.67;2.20;;;-5.70;99.90;;;;;;5072196;28;20214;-64
2021/12/25 07:40:21;;;;;;;5.10;2.53;;;-5.70;99.90;;;;;;5071621;28;20666;-63
2021/12/25 07:42:49;;;;;;;4.53;2.60;;;-5.60;99.90;;;;;;5072667;28;20566;-63
2021/12/25 07:45:16;;;;;;;5.37;2.20;;;-5.40;99.90;;;;;;5072986;28;20209;-63
2021/12/25 07:47:49;;;;;;;3.87;2.30;;;-5.30;99.90;;;;;;5084463;28;20694;-62
2021/12/25 07:50:16;;;;;;;4.10;2.50;;;-5.10;99.90;;;;;;5060086;28;20240;-62
2021/12/25 07:52:44;;;;;;;10.13;2.90;;;-4.90;99.90;;;;;;5074235;28;20291;-64
2021/12/25 07:55:11;;;;;;;7.37;2.70;;;-4.80;99.90;;;;;;5061914;28;20217;-65
2021/12/25 07:57:38;;;;;;;3.43;2.20;;;-4.80;99.90;;;;;;5072535;28;20753;-65
2021/12/25 08:00:10;;;;;;;5.47;2.83;;;-4.70;99.90;;;;;;5069009;28;20205;-65
2021/12/25 08:02:37;;;;;;;9.93;3.40;;;-4.70;99.90;;;;;;5071549;28;20210;-67
2021/12/25 08:05:04;;;;;;;6.53;3.13;;;-4.60;99.90;;;;;;5071798;28;20204;-66
2021/12/25 08:07:31;;;;;;;5.17;2.70;;;-4.60;99.90;;;;;;5072261;28;20201;-66
2021/12/25 08:10:11;;;;;;;7.43;3.00;;;-4.50;99.90;;;;;;5069157;28;20201;-67
2021/12/25 08:12:38;;;;;;;6.83;3.10;;;-4.50;99.90;;;;;;5064174;28;20322;-67
2021/12/25 08:15:07;;;;;;;5.60;3.10;;;-4.40;99.90;;;;;;5071568;28;20221;-66
2021/12/25 08:17:34;;;;;;;5.00;3.07;;;-4.30;99.90;;;;;;5071089;28;20209;-65
2021/12/25 08:20:01;;;;;;;5.27;3.20;;;-4.30;99.90;;;;;;5075165;28;20198;-65
2021/12/25 08:22:28;;;;;;;8.97;3.70;;;-4.30;99.90;;;;;;5068391;28;20205;-65
2021/12/25 08:24:54;;;;;;;6.90;3.43;;;-4.30;99.90;;;;;;5071522;28;20197;-67
2021/12/25 08:27:21;;;;;;;6.27;3.57;;;-4.30;99.90;;;;;;5072367;28;20244;-65
2021/12/25 08:29:48;;;;;;;7.17;3.63;;;-4.10;99.90;;;;;;5071596;28;20654;-67
2021/12/25 08:32:17;;;;;;;4.83;2.97;;;-4.00;99.90;;;;;;5071629;28;20216;-65
2021/12/25 08:34:44;;;;;;;5.90;3.60;;;-3.90;99.90;;;;;;5071473;28;20686;-65
2021/12/25 08:37:11;;;;;;;8.30;3.60;;;-3.70;99.90;;;;;;5072113;28;20256;-65
2021/12/25 08:39:38;;;;;;;9.20;3.60;;;-3.60;99.90;;;;;;5071668;28;20299;-65
2021/12/25 08:42:06;;;;;;;5.90;3.90;;;-3.30;99.90;;;;;;5071400;28;20587;-66
2021/12/25 08:44:37;;;;;;;7.10;4.10;;;-3.00;99.90;;;;;;5071084;28;20197;-66
2021/12/25 08:47:07;;;;;;;6.47;3.80;;;-2.40;99.90;;;;;;5077610;28;20658;-66
2021/12/25 08:49:39;;;;;;;6.50;3.67;;;1.20;99.90;;;;;;5071650;28;20311;-66
2021/12/25 08:52:09;;;;;;;7.40;3.60;;;1.40;99.90;;;;;;5072374;28;20205;-66
2021/12/25 08:54:36;;;;;;;6.63;3.70;;;3.70;99.90;;;;;;5072193;28;20589;-65
2021/12/25 08:57:04;;;;;;;9.17;4.03;;;5.70;99.90;;;;;;5071807;28;20225;-65
2021/12/25 08:59:33;;;;;;;7.60;3.83;;;7.50;90.30;;;;;;5072149;28;20296;-65
2021/12/25 09:02:00;;;;;;;6.93;3.90;;;8.90;73.70;;;;;;5072932;28;20280;-65
2021/12/25 09:04:26;;;;;;;6.93;3.70;;;10.30;62.90;;;;;;5074349;28;20673;-65
2021/12/25 09:06:55;;;;;;;7.07;3.63;;;11.40;57.10;;;;;;5071389;28;20226;-65
2021/12/25 09:09:21;;;;;;;7.40;3.90;;;12.40;52.60;;;;;;5078661;28;20284;-64
2021/12/25 09:11:48;;;;;;;9.07;4.70;;;13.10;48.60;;;;;;5074733;28;20220;-64
2021/12/25 09:14:15;;;;;;;9.20;3.90;;;13.80;46.60;;;;;;5071040;28;20201;-64
2021/12/25 09:16:42;;;;;;;8.80;4.40;;;14.50;44.30;;;;;;5071043;28;20208;-64
2021/12/25 09:19:09;;;;;;;8.13;5.17;;;15.20;42.30;;;;;;5071511;28;20200;-64
2021/12/25 09:21:36;;;;;;;10.17;5.20;;;16.00;41.20;;;;;;5071896;28;20235;-63
2021/12/25 09:24:05;;;;;;;8.10;4.43;;;16.50;39.30;;;;;;5071459;28;20206;-65
2021/12/25 09:26:32;;;;;;;7.30;4.83;;;17.20;38.20;;;;;;5081430;28;20224;-64
2021/12/25 09:28:59;;;;;;;8.37;5.27;;;17.40;36.80;;;;;;5074514;28;20582;-64
2021/12/25 09:31:26;;;;;;;9.50;5.30;;;18.60;35.20;;;;;;5072877;28;20212;-64
2021/12/25 09:33:53;;;;;;;8.23;5.17;;;18.70;35.80;;;;;;5072061;28;20201;-66
2021/12/25 09:36:21;;;;;;;9.07;5.83;;;19.60;35.00;;;;;;5080876;28;20249;-65
2021/12/25 09:38:48;;;;;;;11.17;5.60;;;20.30;33.40;;;;;;5071406;28;20205;-67
2021/12/25 09:41:17;;;;;;;9.50;5.03;;;20.80;32.90;;;;;;5070980;28;20601;-65
2021/12/25 09:43:46;;;;;;;8.65;5.88;;;21.20;31.60;;;;;;5071420;28;20663;-65
2021/12/25 09:46:13;;;;;;;8.20;5.50;;;21.30;30.90;;;;;;5071900;28;20201;-65
2021/12/25 09:48:40;;;;;;;7.97;5.63;;;21.00;30.20;;;;;;5072310;28;20705;-65
2021/12/25 09:51:07;;;;;;;10.82;6.55;;;21.20;30.40;;;;;;5072164;28;20219;-64
2021/12/25 09:53:35;;;;;;;9.45;5.95;;;21.60;30.20;;;;;;5073598;28;20205;-65
2021/12/25 09:56:03;;;;;;;10.30;6.60;;;22.20;29.60;;;;;;5076824;28;20340;-65
2021/12/25 09:58:31;;;;;;;9.35;6.30;;;22.70;29.20;;;;;;5075642;28;20201;-65
2021/12/25 10:00:59;;;;;;;8.07;6.00;;;22.60;28.50;;;;;;5074763;28;20574;-65
2021/12/25 10:03:30;;;;;;;10.43;6.72;;;21.80;27.20;;;;;;5073712;28;20255;-63
2021/12/25 10:05:57;;;;;;;11.32;7.05;;;19.80;26.30;;;;;;5075282;28;20208;-65
2021/12/25 10:08:26;;;;;;;12.17;7.37;;;17.10;26.90;;;;;;5074293;28;20248;-65
2021/12/25 10:10:57;;;;;;;14.03;7.17;;;14.50;28.30;;;;;;5074723;28;20553;-64
2021/12/25 10:13:27;;;;;;;10.47;6.57;;;13.10;33.40;;;;;;5073855;28;20213;-65
2021/12/25 10:15:57;;;;;;;11.17;6.90;;;13.70;36.30;;;;;;5084409;28;20665;-65
2021/12/25 10:18:29;;;;;;;11.47;6.90;;;15.30;35.20;;;;;;5074776;28;20212;-65
2021/12/25 10:20:57;;;;;;;10.57;6.47;;;16.60;32.80;;;;;;5075258;28;20571;-66
2021/12/25 10:23:29;;;;;;;13.17;7.07;;;17.50;32.20;;;;;;5074161;28;20212;-65
2021/12/25 10:25:58;;;;;;;12.17;7.40;;;18.70;31.10;;;;;;5074057;28;20213;-64
2021/12/25 10:28:30;;;;;;;11.17;7.17;;;20.00;30.00;;;;;;5073089;28;20244;-64
2021/12/25 10:31:02;;;;;;;10.10;6.65;;;21.10;29.60;;;;;;5084211;28;20197;-64
2021/12/25 10:33:36;;;;;;;10.65;6.93;;;22.00;28.90;;;;;;5072546;28;20212;-65
2021/12/25 10:36:06;;;;;;;9.63;7.25;;;22.60;28.10;;;;;;5073842;28;20217;-65
2021/12/25 10:38:34;;;;;;;10.63;6.88;;;23.30;27.80;;;;;;5073197;28;20208;-65
2021/12/25 10:41:19;;;;;;;9.40;6.70;;;23.90;27.60;;;;;;5073216;28;20208;-65
2021/12/25 10:43:47;;;;;;;10.73;7.15;;;24.40;27.10;;;;;;5073626;28;20205;-65
2021/12/25 10:46:16;;;;;;;12.00;7.60;;;24.70;26.70;;;;;;5073803;28;20653;-64
2021/12/25 10:48:43;;;;;;;12.73;7.72;;;24.70;26.50;;;;;;5066059;28;20210;-64
2021/12/25 10:51:24;;;;;;;11.88;8.05;;;24.90;26.50;;;;;;5067634;28;20205;-65
2021/12/25 10:53:53;;;;;;;10.32;7.22;;;25.40;26.20;;;;;;5073419;28;20201;-65
2021/12/25 10:56:21;;;;;;;11.35;7.75;;;25.60;26.00;;;;;;5073563;28;20225;-64
2021/12/25 10:58:48;;;;;;;11.10;7.68;;;25.90;25.80;;;;;;5076864;28;20205;-65
2021/12/25 11:01:17;;;;;;;11.00;7.65;;;26.50;25.70;;;;;;5080411;28;20231;-65
2021/12/25 11:03:46;;;;;;;11.70;7.72;;;26.80;25.10;;;;;;5072566;28;20236;-65
2021/12/25 11:06:16;;;;;;;10.55;7.53;;;27.00;24.80;;;;;;5064018;28;20254;-65
2021/12/25 11:08:44;;;;;;;12.82;8.30;;;27.30;24.90;;;;;;5071980;28;20694;-66
2021/12/25 11:11:14;;;;;;;12.63;7.95;;;27.80;25.00;;;;;;5074208;28;20210;-66
2021/12/25 11:13:43;;;;;;;11.50;7.72;;;28.40;24.30;;;;;;5072673;28;20292;-65
2021/12/25 11:16:27;;;;;;;12.93;7.30;;;28.60;23.60;;;;;;5073658;28;20206;-65
2021/12/25 11:19:04;;;;;;;11.27;7.60;;;28.60;23.60;;;;;;5074096;28;20752;-64
2021/12/25 11:21:33;;;;;;;10.65;8.00;;;28.60;23.60;;;;;;5072981;28;20236;-65
2021/12/25 11:24:06;;;;;;;11.88;8.25;;;28.60;23.60;;;;;;5079288;28;20292;-65
2021/12/25 11:26:33;;;;;;;11.70;7.78;;;28.50;23.60;;;;;;5073207;28;20233;-65
2021/12/25 11:29:00;;;;;;;12.55;8.32;;;28.30;23.50;;;;;;5075247;28;20633;-65
2021/12/25 11:31:30;;;;;;;13.18;8.75;;;28.50;23.60;;;;;;5063304;28;20461;-65
2021/12/25 11:33:57;;;;;;;11.52;8.10;;;28.80;23.40;;;;;;5069031;28;20205;-65
2021/12/25 11:36:24;;;;;;;11.30;7.95;;;28.90;23.00;;;;;;5072929;28;20220;-65
2021/12/25 11:38:51;;;;;;;11.70;7.88;;;27.70;21.60;;;;;;5071885;28;20197;-64
2021/12/25 11:41:19;;;;;;;11.73;8.18;;;25.20;22.00;;;;;;5073872;28;20415;-64
2021/12/25 11:43:47;;;;;;;11.80;7.30;;;22.20;23.00;;;;;;5070266;28;20288;-65
2021/12/25 11:46:15;;;;;;;10.73;7.35;;;19.10;24.10;;;;;;5072970;28;20294;-64
2021/12/25 11:48:45;;;;;;;11.43;7.00;;;16.30;25.60;;;;;;5073560;28;20217;-63
2021/12/25 11:51:28;;;;;;;10.77;6.97;;;13.90;27.40;;;;;;5083478;28;20287;-64
2021/12/25 11:54:11;;;;;;;11.47;7.20;;;11.80;29.20;;;;;;5082660;28;20236;-63
2021/12/25 11:57:00;;;;;;;12.20;6.70;;;10.10;30.90;;;;;;5072714;28;20221;-64
2021/12/25 11:59:27;;;;;;;11.20;6.37;;;8.60;34.10;;;;;;5072828;28;20201;-65
2021/12/25 12:02:02;;;;;;;11.77;6.20;;;7.40;35.90;;;;;;5072793;28;20201;-63
2021/12/25 12:04:30;;;;;;;10.47;6.37;;;6.40;37.70;;;;;;5070659;28;20197;-64
2021/12/25 12:07:04;;;;;;;12.10;6.37;;;5.60;39.20;;;;;;5074364;28;20217;-64
2021/12/25 12:09:32;;;;;;;12.27;6.23;;;4.80;40.70;;;;;;5072535;28;20201;-64
2021/12/25 12:12:17;;;;;;;11.03;5.80;;;4.20;42.30;;;;;;5072972;28;20713;-64
2021/12/25 12:14:45;;;;;;;9.93;5.90;;;3.60;43.60;;;;;;5072597;28;20276;-64
2021/12/25 12:17:27;;;;;;;12.13;6.73;;;3.00;45.00;;;;;;5071573;28;20201;-65
2021/12/25 12:19:55;;;;;;;10.70;6.03;;;2.40;46.40;;;;;;5071838;28;20201;-64
2021/12/25 12:23:01;;;;;;;13.57;7.17;;;1.90;47.70;;;;;;5072367;28;20212;-63
2021/12/25 12:25:45;;;;;;;12.77;5.93;;;1.60;49.00;;;;;;5067827;28;20240;-63
2021/12/25 12:28:12;;;;;;;10.63;5.90;;;1.30;49.80;;;;;;5063226;28;20246;-65
2021/12/25 12:30:48;;;;;;;14.73;6.57;;;1.00;50.90;;;;;;5071149;28;20235;-64
2021/12/25 12:33:38;;;;;;;10.40;6.03;;;0.80;51.70;;;;;;5069912;28;20193;-62
2021/12/25 12:36:22;;;;;;;11.17;6.20;;;0.60;52.50;;;;;;5072030;28;20702;-62
2021/12/25 12:38:54;;;;;;;11.90;5.90;;;0.30;53.20;;;;;;5071613;28;20208;-63
2021/12/25 12:41:28;;;;;;;11.50;6.20;;;0.10;53.90;;;;;;5071692;28;20224;-64
2021/12/25 12:44:08;;;;;;;11.10;6.00;;;-0.20;54.60;;;;;;5072146;28;20664;-64
2021/12/25 12:47:02;;;;;;;10.83;5.87;;;-0.40;55.40;;;;;;5077161;28;20304;-64
2021/12/25 12:49:32;;;;;;;14.00;6.40;;;-0.60;56.10;;;;;;5070920;28;20201;-63
2021/12/25 12:52:24;;;;;;;12.20;6.30;;;-0.80;56.90;;;;;;5071993;28;20602;-65
2021/12/25 12:54:53;;;;;;;15.17;6.23;;;-1.00;57.60;;;;;;5070270;28;20211;-63
2021/12/25 12:57:23;;;;;;;10.90;6.37;;;-1.10;58.20;;;;;;5070821;28;20217;-64
2021/12/25 12:59:52;;;;;;;11.60;6.13;;;-1.20;58.80;;;;;;5069938;28;20201;-64
2021/12/25 13:02:20;;;;;;;15.37;6.00;;;-1.30;59.30;;;;;;5071282;28;20205;-63
2021/12/25 13:04:49;;;;;;;13.67;6.27;;;-1.50;59.60;;;;;;5070727;28;20205;-63
2021/12/25 13:07:22;;;;;;;13.60;6.27;;;-1.60;60.30;;;;;;5071636;28;20608;-62
2021/12/25 13:10:01;;;;;;;11.10;6.10;;;-1.70;61.00;;;;;;5071275;28;20240;-63
2021/12/25 13:12:40;;;;;;;14.83;6.03;;;-1.70;61.90;;;;;;5071635;28;20203;-63
2021/12/25 13:15:12;;;;;;;13.87;6.67;;;-1.80;62.40;;;;;;5071219;28;20232;-64
2021/12/25 13:17:46;;;;;;;14.37;6.50;;;-1.90;63.20;;;;;;5071500;28;20198;-63
2021/12/25 13:20:13;;;;;;;11.80;6.47;;;-1.90;64.10;;;;;;5066495;28;20555;-63
2021/12/25 13:22:40;;;;;;;12.87;6.27;;;-2.00;64.00;;;;;;5072075;28;20284;-62
2021/12/25 13:25:10;;;;;;;13.47;6.30;;;-2.10;64.60;;;;;;5066825;28;20213;-62
2021/12/25 13:27:38;;;;;;;15.83;6.60;;;-2.20;65.40;;;;;;5057621;28;20244;-62
2021/12/25 13:30:16;;;;;;;13.90;6.50;;;-2.20;66.40;;;;;;5075272;28;20207;-63
2021/12/25 13:32:43;;;;;;;14.00;6.63;;;-2.30;67.10;;;;;;5075937;28;20232;-63
2021/12/25 13:35:12;;;;;;;11.87;6.27;;;-2.40;67.80;;;;;;5081216;28;20201;-64
2021/12/25 13:37:39;;;;;;;17.43;6.60;;;-2.50;68.60;;;;;;5072761;28;20214;-62
2021/12/25 13:40:10;;;;;;;15.63;6.83;;;-2.60;70.10;;;;;;5075477;28;20650;-63
2021/12/25 13:42:37;;;;;;;13.03;6.10;;;-2.60;70.50;;;;;;5074953;28;20866;-63
2021/12/25 13:45:04;;;;;;;14.57;6.83;;;-2.70;71.50;;;;;;5074516;28;20206;-63
2021/12/25 13:47:33;;;;;;;13.47;6.03;;;-2.70;72.90;;;;;;5075181;28;20219;-63
2021/12/25 13:50:03;;;;;;;14.70;6.47;;;-2.70;74.20;;;;;;5072445;28;20235;-63
2021/12/25 13:52:35;;;;;;;18.23;6.50;;;-2.70;75.70;;;;;;5077881;28;20213;-63
2021/12/25 13:55:07;;;;;;;13.90;6.10;;;-2.80;77.20;;;;;;5076196;28;20229;-63